Yacuy, Argentina
Current Conditions -  °F | °C
As of 6:00 PM on Sunday 23 Nov 2014 (Local Time) from SLYA Reporting Station
Broken Clouds Broken Clouds  
Wind Chill: 77°   Ceiling: 2500
Heat Index: 79°   Visibility: 6mi
Dew Point: 66°   Wind: 14mph
Humidity: 69%   Direction: 50°NE
Pressure: 29.85"   Gusts: NA
Location:  22.38°S, 63.8°W
Report Text: SLYA 232100Z 05012KT 9999 BKN025 BKN200 25/19 Q1011
Loading
Personal Weather Stations






























Interactive Weather Map New forecast layout! Learn more

10-Day Weather Forecast

Advertisements
Track Severe Weather on mobile